Aérodrome :
LOGIN :

S'inscrire | Disclaimer

   EN    FR    IT 

 










Légende :    VFR   VFR Marginal   IFR   IFR Intensif   IFR Très Intensif
Visi : 
Plafond : 
>= 8 km
>= 3000ft
5 à 8 km
1000 à 3000 ft
1500m à 5 km
500 à 1000 ft
800 à 1500m
200 à 500 ft
< 800m
< 200 ft
Symboles :   Orages  Brouillard  Fortes neiges  Fortes précipitations  Vent > 20 kt
SIGMETs :   Divers  Orages  Givrage  Turbulence  Onde Orograph.  Cendres Volcan.







- Altitude de l'aérodrome : 461 ft
- Code IATA : WIE


ETOU - Wiesbaden Army

DERNIER METAR :
  • 180656Z AUTO 00000KT 9999 CLR M02/M04 A3018 RMK AO2 SLP230 T10191039 FZRANO $

METARs EXPIRÉS :
  • 180556Z AUTO 00000KT 9999 CLR M01/M03 A3018 RMK AO2 SLP228 T10151035 10011 21021 50000 FZRANO $
  • 180456Z AUTO 00000KT 9999 CLR M01/M03 A3018 RMK AO2 SLP227 T10151035 FZRANO $

TAF TAF ETOU
Valide du 17 à 14h jusqu'au 18 à 18h UTC


171430Z 1714/1818 VRB06KT 9999 SKC QNH3010INS TX13/1615Z TNM04/1703Z LAST NO AMDS AFT 1714 NEXT 1904
Pas de NOTAMs connus pour ce terrain.



MET'MAP, la Météo Aéronautique d'un coup d'oeil ! - Copyright ORBIFLY Décembre 2007 - Disclaimer

ORBIFLY MET'MAP TEAM :

Programmation & Développement : Alexandra Zaïnal
Conception & Développement : Baudouin d'Aumeries
Co-Programmation & Développement : Marc-Olivier Méhu
Soutien technique & logistique : Manuel Goepfert

Contact : metmap@orbifly.com




SOURCES & CREDITS :

   NOAA